sensor_id;sensor_type;location;lat;lon;timestamp;temperature;humidity
14529;DHT22;7351;51.194;4.098;2023-01-24T00:01:19;15.90;99.90
14529;DHT22;7351;51.194;4.098;2023-01-24T00:03:46;15.90;99.90
14529;DHT22;7351;51.194;4.098;2023-01-24T00:06:13;15.90;99.90
14529;DHT22;7351;51.194;4.098;2023-01-24T00:08:41;15.90;99.90
14529;DHT22;7351;51.194;4.098;2023-01-24T00:11:11;15.90;99.90
14529;DHT22;7351;51.194;4.098;2023-01-24T00:13:38;15.80;99.90
14529;DHT22;7351;51.194;4.098;2023-01-24T00:16:07;15.90;99.90
14529;DHT22;7351;51.194;4.098;2023-01-24T00:18:35;15.80;99.90
14529;DHT22;7351;51.194;4.098;2023-01-24T00:21:04;15.80;99.90
14529;DHT22;7351;51.194;4.098;2023-01-24T00:23:34;15.80;99.90
14529;DHT22;7351;51.194;4.098;2023-01-24T00:26:01;15.80;99.90
14529;DHT22;7351;51.194;4.098;2023-01-24T00:28:31;15.80;99.90
14529;DHT22;7351;51.194;4.098;2023-01-24T00:30:58;15.70;99.90
14529;DHT22;7351;51.194;4.098;2023-01-24T00:33:25;15.80;99.90
14529;DHT22;7351;51.194;4.098;2023-01-24T00:35:52;15.80;99.90
14529;DHT22;7351;51.194;4.098;2023-01-24T00:38:19;15.70;99.90
14529;DHT22;7351;51.194;4.098;2023-01-24T00:40:47;15.70;99.90
14529;DHT22;7351;51.194;4.098;2023-01-24T00:43:15;15.70;99.90
14529;DHT22;7351;51.194;4.098;2023-01-24T00:45:44;15.70;99.90
14529;DHT22;7351;51.194;4.098;2023-01-24T00:48:11;15.70;99.90
14529;DHT22;7351;51.194;4.098;2023-01-24T00:50:39;15.60;99.90
14529;DHT22;7351;51.194;4.098;2023-01-24T00:53:06;15.70;99.90
14529;DHT22;7351;51.194;4.098;2023-01-24T00:55:33;15.60;99.90
14529;DHT22;7351;51.194;4.098;2023-01-24T00:58:00;15.60;99.90
14529;DHT22;7351;51.194;4.098;2023-01-24T01:00:27;15.60;99.90
14529;DHT22;7351;51.194;4.098;2023-01-24T01:02:55;15.60;99.90
14529;DHT22;7351;51.194;4.098;2023-01-24T01:05:22;15.60;99.90
14529;DHT22;7351;51.194;4.098;2023-01-24T01:07:49;15.60;99.90
14529;DHT22;7351;51.194;4.098;2023-01-24T01:10:16;15.60;99.90
14529;DHT22;7351;51.194;4.098;2023-01-24T01:12:43;15.50;99.90
14529;DHT22;7351;51.194;4.098;2023-01-24T01:15:11;15.50;99.90
14529;DHT22;7351;51.194;4.098;2023-01-24T01:17:38;15.50;99.90
14529;DHT22;7351;51.194;4.098;2023-01-24T01:20:07;15.50;99.90
14529;DHT22;7351;51.194;4.098;2023-01-24T01:22:34;15.50;99.90
14529;DHT22;7351;51.194;4.098;2023-01-24T01:25:01;15.50;99.90
14529;DHT22;7351;51.194;4.098;2023-01-24T01:27:28;15.50;99.90
14529;DHT22;7351;51.194;4.098;2023-01-24T01:29:55;15.40;99.90
14529;DHT22;7351;51.194;4.098;2023-01-24T01:32:22;15.40;99.90
14529;DHT22;7351;51.194;4.098;2023-01-24T01:34:49;15.40;99.90
14529;DHT22;7351;51.194;4.098;2023-01-24T01:37:17;15.40;99.90
14529;DHT22;7351;51.194;4.098;2023-01-24T01:39:44;15.40;99.90
14529;DHT22;7351;51.194;4.098;2023-01-24T01:42:12;15.40;99.90
14529;DHT22;7351;51.194;4.098;2023-01-24T01:44:40;15.30;99.90
14529;DHT22;7351;51.194;4.098;2023-01-24T01:47:17;15.30;99.90
14529;DHT22;7351;51.194;4.098;2023-01-24T01:49:51;15.40;99.90
14529;DHT22;7351;51.194;4.098;2023-01-24T01:52:22;15.30;99.90
14529;DHT22;7351;51.194;4.098;2023-01-24T01:54:52;15.30;99.90
14529;DHT22;7351;51.194;4.098;2023-01-24T01:57:22;15.30;99.90
14529;DHT22;7351;51.194;4.098;2023-01-24T01:59:53;15.30;99.90
14529;DHT22;7351;51.194;4.098;2023-01-24T02:02:21;15.30;99.90
14529;DHT22;7351;51.194;4.098;2023-01-24T02:04:52;15.30;99.90
14529;DHT22;7351;51.194;4.098;2023-01-24T02:07:24;15.30;99.90
14529;DHT22;7351;51.194;4.098;2023-01-24T02:09:55;15.30;99.90
14529;DHT22;7351;51.194;4.098;2023-01-24T02:12:25;15.20;99.90
14529;DHT22;7351;51.194;4.098;2023-01-24T02:14:55;15.20;99.90
14529;DHT22;7351;51.194;4.098;2023-01-24T02:17:41;15.20;99.90
14529;DHT22;7351;51.194;4.098;2023-01-24T02:20:22;15.20;99.90
14529;DHT22;7351;51.194;4.098;2023-01-24T02:23:01;15.20;99.90
14529;DHT22;7351;51.194;4.098;2023-01-24T02:25:34;15.10;99.90
14529;DHT22;7351;51.194;4.098;2023-01-24T02:28:05;15.20;99.90
14529;DHT22;7351;51.194;4.098;2023-01-24T02:30:34;15.10;99.90
14529;DHT22;7351;51.194;4.098;2023-01-24T02:33:09;15.10;99.90
14529;DHT22;7351;51.194;4.098;2023-01-24T02:35:36;15.20;99.90
14529;DHT22;7351;51.194;4.098;2023-01-24T02:38:05;15.10;99.90
14529;DHT22;7351;51.194;4.098;2023-01-24T02:40:33;15.10;99.90
14529;DHT22;7351;51.194;4.098;2023-01-24T02:43:05;15.10;99.90
14529;DHT22;7351;51.194;4.098;2023-01-24T02:45:34;15.10;99.90
14529;DHT22;7351;51.194;4.098;2023-01-24T02:48:01;15.10;99.90
14529;DHT22;7351;51.194;4.098;2023-01-24T02:50:29;15.10;99.90
14529;DHT22;7351;51.194;4.098;2023-01-24T02:53:17;15.10;99.90
14529;DHT22;7351;51.194;4.098;2023-01-24T02:55:55;15.00;99.90
14529;DHT22;7351;51.194;4.098;2023-01-24T02:58:37;15.00;99.90
14529;DHT22;7351;51.194;4.098;2023-01-24T03:01:04;15.00;99.90
14529;DHT22;7351;51.194;4.098;2023-01-24T03:03:31;15.00;99.90
14529;DHT22;7351;51.194;4.098;2023-01-24T03:05:58;15.00;99.90
14529;DHT22;7351;51.194;4.098;2023-01-24T03:08:27;15.00;99.90
14529;DHT22;7351;51.194;4.098;2023-01-24T03:10:55;15.00;99.90
14529;DHT22;7351;51.194;4.098;2023-01-24T03:13:23;15.00;99.90
14529;DHT22;7351;51.194;4.098;2023-01-24T03:16:09;15.00;99.90
14529;DHT22;7351;51.194;4.098;2023-01-24T03:18:53;15.00;99.90
14529;DHT22;7351;51.194;4.098;2023-01-24T03:21:38;15.00;99.90
14529;DHT22;7351;51.194;4.098;2023-01-24T03:24:23;14.90;99.90
14529;DHT22;7351;51.194;4.098;2023-01-24T03:27:08;14.90;99.90
14529;DHT22;7351;51.194;4.098;2023-01-24T03:29:53;14.90;99.90
14529;DHT22;7351;51.194;4.098;2023-01-24T03:32:38;14.90;99.90
14529;DHT22;7351;51.194;4.098;2023-01-24T03:35:23;14.90;99.90
14529;DHT22;7351;51.194;4.098;2023-01-24T03:37:50;14.90;99.90
14529;DHT22;7351;51.194;4.098;2023-01-24T03:40:35;14.80;99.90
14529;DHT22;7351;51.194;4.098;2023-01-24T03:43:02;14.90;99.90
14529;DHT22;7351;51.194;4.098;2023-01-24T03:45:31;14.80;99.90
14529;DHT22;7351;51.194;4.098;2023-01-24T03:48:02;14.80;99.90
14529;DHT22;7351;51.194;4.098;2023-01-24T03:50:31;14.80;99.90
14529;DHT22;7351;51.194;4.098;2023-01-24T03:53:17;14.80;99.90
14529;DHT22;7351;51.194;4.098;2023-01-24T03:55:45;14.80;99.90
14529;DHT22;7351;51.194;4.098;2023-01-24T03:58:12;14.80;99.90
14529;DHT22;7351;51.194;4.098;2023-01-24T04:00:39;14.80;99.90
14529;DHT22;7351;51.194;4.098;2023-01-24T04:03:07;14.70;99.90
14529;DHT22;7351;51.194;4.098;2023-01-24T04:05:35;14.80;99.90
14529;DHT22;7351;51.194;4.098;2023-01-24T04:08:03;14.70;99.90
14529;DHT22;7351;51.194;4.098;2023-01-24T04:10:30;14.70;99.90
14529;DHT22;7351;51.194;4.098;2023-01-24T04:12:58;14.80;99.90
14529;DHT22;7351;51.194;4.098;2023-01-24T04:15:27;14.80;99.90
14529;DHT22;7351;51.194;4.098;2023-01-24T04:17:55;14.80;99.90
14529;DHT22;7351;51.194;4.098;2023-01-24T04:20:24;14.90;99.90
14529;DHT22;7351;51.194;4.098;2023-01-24T04:22:52;15.00;99.90
14529;DHT22;7351;51.194;4.098;2023-01-24T04:25:19;15.10;99.90
14529;DHT22;7351;51.194;4.098;2023-01-24T04:27:46;15.20;99.90
14529;DHT22;7351;51.194;4.098;2023-01-24T04:30:15;15.30;99.90
14529;DHT22;7351;51.194;4.098;2023-01-24T04:32:42;15.30;99.90
14529;DHT22;7351;51.194;4.098;2023-01-24T04:35:15;15.50;99.90
14529;DHT22;7351;51.194;4.098;2023-01-24T04:37:44;15.60;99.90
14529;DHT22;7351;51.194;4.098;2023-01-24T04:40:11;15.60;99.90
14529;DHT22;7351;51.194;4.098;2023-01-24T04:42:38;15.70;99.90
14529;DHT22;7351;51.194;4.098;2023-01-24T04:45:07;15.80;99.90
14529;DHT22;7351;51.194;4.098;2023-01-24T04:47:34;16.00;99.90
14529;DHT22;7351;51.194;4.098;2023-01-24T04:50:01;16.10;99.90
14529;DHT22;7351;51.194;4.098;2023-01-24T04:52:28;16.20;99.90
14529;DHT22;7351;51.194;4.098;2023-01-24T04:54:56;16.20;99.90
14529;DHT22;7351;51.194;4.098;2023-01-24T04:57:23;16.30;99.90
14529;DHT22;7351;51.194;4.098;2023-01-24T04:59:50;16.30;99.90
14529;DHT22;7351;51.194;4.098;2023-01-24T05:02:17;16.40;99.90
14529;DHT22;7351;51.194;4.098;2023-01-24T05:04:44;16.40;99.90
14529;DHT22;7351;51.194;4.098;2023-01-24T05:07:11;16.50;99.90
14529;DHT22;7351;51.194;4.098;2023-01-24T05:09:38;16.60;99.90
14529;DHT22;7351;51.194;4.098;2023-01-24T05:12:06;16.60;99.90
14529;DHT22;7351;51.194;4.098;2023-01-24T05:14:33;16.70;99.90
14529;DHT22;7351;51.194;4.098;2023-01-24T05:17:00;16.70;99.90
14529;DHT22;7351;51.194;4.098;2023-01-24T05:19:27;16.70;99.90
14529;DHT22;7351;51.194;4.098;2023-01-24T05:21:54;16.70;99.90
14529;DHT22;7351;51.194;4.098;2023-01-24T05:24:21;16.80;99.90
14529;DHT22;7351;51.194;4.098;2023-01-24T05:26:48;16.80;99.90
14529;DHT22;7351;51.194;4.098;2023-01-24T05:29:16;16.80;99.90
14529;DHT22;7351;51.194;4.098;2023-01-24T05:31:43;16.80;99.90
14529;DHT22;7351;51.194;4.098;2023-01-24T05:34:10;16.90;99.90
14529;DHT22;7351;51.194;4.098;2023-01-24T05:36:37;16.80;99.90
14529;DHT22;7351;51.194;4.098;2023-01-24T05:39:04;16.90;99.90
14529;DHT22;7351;51.194;4.098;2023-01-24T05:41:31;16.90;99.90
14529;DHT22;7351;51.194;4.098;2023-01-24T05:43:58;16.90;99.90
14529;DHT22;7351;51.194;4.098;2023-01-24T05:46:27;16.90;99.90
14529;DHT22;7351;51.194;4.098;2023-01-24T05:48:55;16.90;99.90
14529;DHT22;7351;51.194;4.098;2023-01-24T05:51:22;17.00;99.90
14529;DHT22;7351;51.194;4.098;2023-01-24T05:53:49;17.00;99.90
14529;DHT22;7351;51.194;4.098;2023-01-24T05:56:18;17.00;99.90
14529;DHT22;7351;51.194;4.098;2023-01-24T05:58:47;17.00;99.90
14529;DHT22;7351;51.194;4.098;2023-01-24T06:01:15;17.10;99.90
14529;DHT22;7351;51.194;4.098;2023-01-24T06:03:45;17.10;99.90
14529;DHT22;7351;51.194;4.098;2023-01-24T06:06:14;17.20;99.90
14529;DHT22;7351;51.194;4.098;2023-01-24T06:08:42;17.20;99.90
14529;DHT22;7351;51.194;4.098;2023-01-24T06:11:14;17.20;99.90
14529;DHT22;7351;51.194;4.098;2023-01-24T06:13:42;17.20;99.90
14529;DHT22;7351;51.194;4.098;2023-01-24T06:16:11;17.20;99.90
14529;DHT22;7351;51.194;4.098;2023-01-24T06:18:39;17.20;99.90
14529;DHT22;7351;51.194;4.098;2023-01-24T06:21:15;17.20;99.90
14529;DHT22;7351;51.194;4.098;2023-01-24T06:23:43;17.20;99.90
14529;DHT22;7351;51.194;4.098;2023-01-24T06:26:10;17.10;99.90
14529;DHT22;7351;51.194;4.098;2023-01-24T06:28:38;17.10;99.90
14529;DHT22;7351;51.194;4.098;2023-01-24T06:31:12;17.10;99.90
14529;DHT22;7351;51.194;4.098;2023-01-24T06:33:49;17.00;99.90
14529;DHT22;7351;51.194;4.098;2023-01-24T06:36:47;17.00;99.90
14529;DHT22;7351;51.194;4.098;2023-01-24T06:39:18;17.00;99.90
14529;DHT22;7351;51.194;4.098;2023-01-24T06:41:47;16.90;99.90
14529;DHT22;7351;51.194;4.098;2023-01-24T06:44:14;17.00;99.90
14529;DHT22;7351;51.194;4.098;2023-01-24T06:46:41;16.90;99.90
14529;DHT22;7351;51.194;4.098;2023-01-24T06:49:10;16.90;99.90
14529;DHT22;7351;51.194;4.098;2023-01-24T06:51:37;16.90;99.90
14529;DHT22;7351;51.194;4.098;2023-01-24T06:54:06;16.90;99.90
14529;DHT22;7351;51.194;4.098;2023-01-24T06:56:33;16.80;99.90
14529;DHT22;7351;51.194;4.098;2023-01-24T06:59:00;16.80;99.90
14529;DHT22;7351;51.194;4.098;2023-01-24T07:01:27;16.70;99.90
14529;DHT22;7351;51.194;4.098;2023-01-24T07:03:54;16.70;99.90
14529;DHT22;7351;51.194;4.098;2023-01-24T07:06:21;16.70;99.90
14529;DHT22;7351;51.194;4.098;2023-01-24T07:08:49;16.70;99.90
14529;DHT22;7351;51.194;4.098;2023-01-24T07:11:17;16.60;99.90
14529;DHT22;7351;51.194;4.098;2023-01-24T07:13:44;16.60;99.90
14529;DHT22;7351;51.194;4.098;2023-01-24T07:16:11;16.50;99.90
14529;DHT22;7351;51.194;4.098;2023-01-24T07:18:38;16.50;99.90
14529;DHT22;7351;51.194;4.098;2023-01-24T07:21:06;16.50;99.90
14529;DHT22;7351;51.194;4.098;2023-01-24T07:23:35;16.50;99.90
14529;DHT22;7351;51.194;4.098;2023-01-24T07:26:04;16.40;99.90
14529;DHT22;7351;51.194;4.098;2023-01-24T07:28:36;16.40;99.90
14529;DHT22;7351;51.194;4.098;2023-01-24T07:31:03;16.30;99.90
14529;DHT22;7351;51.194;4.098;2023-01-24T07:33:31;16.30;99.90
14529;DHT22;7351;51.194;4.098;2023-01-24T07:35:58;16.30;99.90
14529;DHT22;7351;51.194;4.098;2023-01-24T07:38:25;16.30;99.90
14529;DHT22;7351;51.194;4.098;2023-01-24T07:40:52;16.20;99.90
14529;DHT22;7351;51.194;4.098;2023-01-24T07:43:19;16.10;99.90
14529;DHT22;7351;51.194;4.098;2023-01-24T07:45:47;16.10;99.90
14529;DHT22;7351;51.194;4.098;2023-01-24T07:48:14;16.20;99.90
14529;DHT22;7351;51.194;4.098;2023-01-24T07:50:41;16.10;99.90
14529;DHT22;7351;51.194;4.098;2023-01-24T07:53:08;16.10;99.90
14529;DHT22;7351;51.194;4.098;2023-01-24T07:55:35;16.10;99.90
14529;DHT22;7351;51.194;4.098;2023-01-24T07:58:02;16.10;99.90
14529;DHT22;7351;51.194;4.098;2023-01-24T08:00:29;16.00;99.90
14529;DHT22;7351;51.194;4.098;2023-01-24T08:02:57;16.00;99.90
14529;DHT22;7351;51.194;4.098;2023-01-24T08:05:24;16.00;99.90
14529;DHT22;7351;51.194;4.098;2023-01-24T08:07:53;16.00;99.90
14529;DHT22;7351;51.194;4.098;2023-01-24T08:10:21;16.00;99.90
14529;DHT22;7351;51.194;4.098;2023-01-24T08:12:48;16.00;99.90
14529;DHT22;7351;51.194;4.098;2023-01-24T08:15:16;15.90;99.90
14529;DHT22;7351;51.194;4.098;2023-01-24T08:17:43;15.90;99.90
14529;DHT22;7351;51.194;4.098;2023-01-24T08:20:12;15.90;99.90
14529;DHT22;7351;51.194;4.098;2023-01-24T08:22:39;15.90;99.90
14529;DHT22;7351;51.194;4.098;2023-01-24T08:25:07;15.90;99.90
14529;DHT22;7351;51.194;4.098;2023-01-24T08:27:34;15.90;99.90
14529;DHT22;7351;51.194;4.098;2023-01-24T08:30:01;15.80;99.90
14529;DHT22;7351;51.194;4.098;2023-01-24T08:32:28;15.80;99.90
14529;DHT22;7351;51.194;4.098;2023-01-24T08:34:57;15.80;99.90
14529;DHT22;7351;51.194;4.098;2023-01-24T08:37:25;15.80;99.90
14529;DHT22;7351;51.194;4.098;2023-01-24T08:39:52;15.70;99.90
14529;DHT22;7351;51.194;4.098;2023-01-24T08:42:22;15.70;99.90
14529;DHT22;7351;51.194;4.098;2023-01-24T08:44:49;15.70;99.90
14529;DHT22;7351;51.194;4.098;2023-01-24T08:47:19;15.70;99.90
14529;DHT22;7351;51.194;4.098;2023-01-24T08:49:45;15.70;99.90
14529;DHT22;7351;51.194;4.098;2023-01-24T08:52:12;15.60;99.90
14529;DHT22;7351;51.194;4.098;2023-01-24T08:54:41;15.60;99.90
14529;DHT22;7351;51.194;4.098;2023-01-24T08:57:08;15.60;99.90
14529;DHT22;7351;51.194;4.098;2023-01-24T08:59:35;15.60;99.90
14529;DHT22;7351;51.194;4.098;2023-01-24T09:02:03;15.60;99.90
14529;DHT22;7351;51.194;4.098;2023-01-24T09:04:31;15.60;99.90
14529;DHT22;7351;51.194;4.098;2023-01-24T09:06:58;15.60;99.90
14529;DHT22;7351;51.194;4.098;2023-01-24T09:09:25;15.60;99.90
14529;DHT22;7351;51.194;4.098;2023-01-24T09:11:53;15.50;99.90
14529;DHT22;7351;51.194;4.098;2023-01-24T09:14:20;15.50;99.90
14529;DHT22;7351;51.194;4.098;2023-01-24T09:16:48;15.50;99.90
14529;DHT22;7351;51.194;4.098;2023-01-24T09:19:16;15.50;99.90
14529;DHT22;7351;51.194;4.098;2023-01-24T09:21:43;15.50;99.90
14529;DHT22;7351;51.194;4.098;2023-01-24T09:24:13;15.50;99.90
14529;DHT22;7351;51.194;4.098;2023-01-24T09:26:40;15.40;99.90
14529;DHT22;7351;51.194;4.098;2023-01-24T09:29:09;15.50;99.90
14529;DHT22;7351;51.194;4.098;2023-01-24T09:31:36;15.40;99.90
14529;DHT22;7351;51.194;4.098;2023-01-24T09:34:03;15.40;99.90
14529;DHT22;7351;51.194;4.098;2023-01-24T09:36:30;15.40;99.90
14529;DHT22;7351;51.194;4.098;2023-01-24T09:38:57;15.40;99.90
14529;DHT22;7351;51.194;4.098;2023-01-24T09:41:30;15.40;99.90
14529;DHT22;7351;51.194;4.098;2023-01-24T09:44:03;15.30;99.90
14529;DHT22;7351;51.194;4.098;2023-01-24T09:46:38;15.30;99.90
14529;DHT22;7351;51.194;4.098;2023-01-24T09:49:13;15.30;99.90
14529;DHT22;7351;51.194;4.098;2023-01-24T09:51:45;15.30;99.90
14529;DHT22;7351;51.194;4.098;2023-01-24T09:54:17;15.30;99.90
14529;DHT22;7351;51.194;4.098;2023-01-24T09:56:48;15.30;99.90
14529;DHT22;7351;51.194;4.098;2023-01-24T09:59:20;15.30;99.90
14529;DHT22;7351;51.194;4.098;2023-01-24T10:01:51;15.30;99.90
14529;DHT22;7351;51.194;4.098;2023-01-24T10:04:21;15.30;99.90
14529;DHT22;7351;51.194;4.098;2023-01-24T10:07:12;15.20;99.90
14529;DHT22;7351;51.194;4.098;2023-01-24T10:09:51;15.20;99.90
14529;DHT22;7351;51.194;4.098;2023-01-24T10:12:35;15.20;99.90
14529;DHT22;7351;51.194;4.098;2023-01-24T10:15:13;15.20;99.90
14529;DHT22;7351;51.194;4.098;2023-01-24T10:18:01;15.30;99.90
14529;DHT22;7351;51.194;4.098;2023-01-24T10:20:49;15.20;99.90
14529;DHT22;7351;51.194;4.098;2023-01-24T10:23:19;15.20;99.90
14529;DHT22;7351;51.194;4.098;2023-01-24T10:25:51;15.20;99.90
14529;DHT22;7351;51.194;4.098;2023-01-24T10:28:26;15.20;99.90
14529;DHT22;7351;51.194;4.098;2023-01-24T10:30:58;15.20;99.90
14529;DHT22;7351;51.194;4.098;2023-01-24T10:33:31;15.10;99.90
14529;DHT22;7351;51.194;4.098;2023-01-24T10:36:10;15.10;99.90
14529;DHT22;7351;51.194;4.098;2023-01-24T10:38:38;15.20;99.90
14529;DHT22;7351;51.194;4.098;2023-01-24T10:41:17;15.20;99.90
14529;DHT22;7351;51.194;4.098;2023-01-24T10:43:48;15.20;99.90
14529;DHT22;7351;51.194;4.098;2023-01-24T10:46:33;15.10;99.90
14529;DHT22;7351;51.194;4.098;2023-01-24T10:49:09;15.10;99.90
14529;DHT22;7351;51.194;4.098;2023-01-24T10:51:38;15.10;99.90
14529;DHT22;7351;51.194;4.098;2023-01-24T10:54:19;15.10;99.90
14529;DHT22;7351;51.194;4.098;2023-01-24T10:56:48;15.10;99.90
14529;DHT22;7351;51.194;4.098;2023-01-24T10:59:15;15.10;99.90
14529;DHT22;7351;51.194;4.098;2023-01-24T11:01:45;15.10;99.90
14529;DHT22;7351;51.194;4.098;2023-01-24T11:04:19;15.10;99.90
14529;DHT22;7351;51.194;4.098;2023-01-24T11:06:49;15.10;99.90
14529;DHT22;7351;51.194;4.098;2023-01-24T11:09:18;15.10;99.90
14529;DHT22;7351;51.194;4.098;2023-01-24T11:11:49;15.10;99.90
14529;DHT22;7351;51.194;4.098;2023-01-24T11:14:19;15.10;99.90
14529;DHT22;7351;51.194;4.098;2023-01-24T11:16:49;15.10;99.90
14529;DHT22;7351;51.194;4.098;2023-01-24T11:19:29;15.10;99.90
14529;DHT22;7351;51.194;4.098;2023-01-24T11:21:58;15.00;99.90
14529;DHT22;7351;51.194;4.098;2023-01-24T11:24:27;15.00;99.90
14529;DHT22;7351;51.194;4.098;2023-01-24T11:26:57;15.00;99.90
14529;DHT22;7351;51.194;4.098;2023-01-24T11:29:28;15.00;99.90
14529;DHT22;7351;51.194;4.098;2023-01-24T11:31:56;15.00;99.90
14529;DHT22;7351;51.194;4.098;2023-01-24T11:34:44;15.00;99.90
14529;DHT22;7351;51.194;4.098;2023-01-24T11:40:19;15.00;99.90
14529;DHT22;7351;51.194;4.098;2023-01-24T11:42:58;15.00;99.90
14529;DHT22;7351;51.194;4.098;2023-01-24T11:45:49;15.00;99.90
14529;DHT22;7351;51.194;4.098;2023-01-24T11:48:22;15.00;99.90
14529;DHT22;7351;51.194;4.098;2023-01-24T11:51:00;15.00;99.90
14529;DHT22;7351;51.194;4.098;2023-01-24T11:53:54;14.90;99.90
14529;DHT22;7351;51.194;4.098;2023-01-24T11:56:29;14.90;99.90
14529;DHT22;7351;51.194;4.098;2023-01-24T11:59:22;15.00;99.90
14529;DHT22;7351;51.194;4.098;2023-01-24T12:02:00;15.00;99.90
14529;DHT22;7351;51.194;4.098;2023-01-24T12:04:52;14.90;99.90
14529;DHT22;7351;51.194;4.098;2023-01-24T12:07:36;14.90;99.90
14529;DHT22;7351;51.194;4.098;2023-01-24T12:10:15;14.90;99.90
14529;DHT22;7351;51.194;4.098;2023-01-24T12:12:51;14.90;99.90
14529;DHT22;7351;51.194;4.098;2023-01-24T12:15:28;14.90;99.90
14529;DHT22;7351;51.194;4.098;2023-01-24T12:18:27;14.90;99.90
14529;DHT22;7351;51.194;4.098;2023-01-24T12:20:59;14.90;99.90
14529;DHT22;7351;51.194;4.098;2023-01-24T12:23:35;14.90;99.90
14529;DHT22;7351;51.194;4.098;2023-01-24T12:26:07;14.90;99.90
14529;DHT22;7351;51.194;4.098;2023-01-24T12:28:41;14.90;99.90
14529;DHT22;7351;51.194;4.098;2023-01-24T12:31:15;14.90;99.90
14529;DHT22;7351;51.194;4.098;2023-01-24T12:33:49;14.90;99.90
14529;DHT22;7351;51.194;4.098;2023-01-24T12:36:29;14.80;99.90
14529;DHT22;7351;51.194;4.098;2023-01-24T12:39:01;14.80;99.90
14529;DHT22;7351;51.194;4.098;2023-01-24T12:41:32;14.80;99.90
14529;DHT22;7351;51.194;4.098;2023-01-24T12:44:09;14.80;99.90
14529;DHT22;7351;51.194;4.098;2023-01-24T12:46:43;14.80;99.90
14529;DHT22;7351;51.194;4.098;2023-01-24T12:49:23;14.80;99.90
14529;DHT22;7351;51.194;4.098;2023-01-24T12:51:56;14.80;99.90
14529;DHT22;7351;51.194;4.098;2023-01-24T12:54:34;14.80;99.90
14529;DHT22;7351;51.194;4.098;2023-01-24T12:57:13;14.80;99.90
14529;DHT22;7351;51.194;4.098;2023-01-24T12:59:44;14.80;99.90
14529;DHT22;7351;51.194;4.098;2023-01-24T13:02:29;14.80;99.90
14529;DHT22;7351;51.194;4.098;2023-01-24T13:05:09;14.80;99.90
14529;DHT22;7351;51.194;4.098;2023-01-24T13:07:52;14.80;99.90
14529;DHT22;7351;51.194;4.098;2023-01-24T13:10:40;14.80;99.90
14529;DHT22;7351;51.194;4.098;2023-01-24T13:13:16;14.80;99.90
14529;DHT22;7351;51.194;4.098;2023-01-24T13:15:58;14.80;99.90
14529;DHT22;7351;51.194;4.098;2023-01-24T13:18:44;14.80;99.90
14529;DHT22;7351;51.194;4.098;2023-01-24T13:21:18;14.80;99.90
14529;DHT22;7351;51.194;4.098;2023-01-24T13:24:20;14.80;99.90
14529;DHT22;7351;51.194;4.098;2023-01-24T13:32:57;14.80;99.90
14529;DHT22;7351;51.194;4.098;2023-01-24T13:35:28;14.70;99.90
14529;DHT22;7351;51.194;4.098;2023-01-24T13:38:01;14.70;99.90
14529;DHT22;7351;51.194;4.098;2023-01-24T13:40:30;14.80;99.90
14529;DHT22;7351;51.194;4.098;2023-01-24T13:43:03;14.80;99.90
14529;DHT22;7351;51.194;4.098;2023-01-24T13:45:49;14.90;99.90
14529;DHT22;7351;51.194;4.098;2023-01-24T13:48:53;15.00;99.90
14529;DHT22;7351;51.194;4.098;2023-01-24T13:51:43;15.10;99.90
14529;DHT22;7351;51.194;4.098;2023-01-24T13:57:22;15.20;99.90
14529;DHT22;7351;51.194;4.098;2023-01-24T14:00:19;15.20;99.90
14529;DHT22;7351;51.194;4.098;2023-01-24T14:03:04;15.30;99.90
14529;DHT22;7351;51.194;4.098;2023-01-24T14:05:54;15.40;99.90
14529;DHT22;7351;51.194;4.098;2023-01-24T14:09:00;15.40;99.90
14529;DHT22;7351;51.194;4.098;2023-01-24T14:11:39;15.40;99.90
14529;DHT22;7351;51.194;4.098;2023-01-24T14:14:35;15.50;99.90
14529;DHT22;7351;51.194;4.098;2023-01-24T14:17:28;15.50;99.90
14529;DHT22;7351;51.194;4.098;2023-01-24T14:20:24;15.50;99.90
14529;DHT22;7351;51.194;4.098;2023-01-24T14:22:57;15.50;99.90
14529;DHT22;7351;51.194;4.098;2023-01-24T14:25:32;15.50;99.90
14529;DHT22;7351;51.194;4.098;2023-01-24T14:28:02;15.60;99.90
14529;DHT22;7351;51.194;4.098;2023-01-24T14:30:34;15.60;99.90
14529;DHT22;7351;51.194;4.098;2023-01-24T14:33:16;15.70;99.90
14529;DHT22;7351;51.194;4.098;2023-01-24T14:35:53;15.70;99.90
14529;DHT22;7351;51.194;4.098;2023-01-24T14:38:21;15.70;99.90
14529;DHT22;7351;51.194;4.098;2023-01-24T14:40:52;15.70;99.90
14529;DHT22;7351;51.194;4.098;2023-01-24T14:43:20;15.80;99.90
14529;DHT22;7351;51.194;4.098;2023-01-24T14:45:48;15.80;99.90
14529;DHT22;7351;51.194;4.098;2023-01-24T14:48:22;15.80;99.90
14529;DHT22;7351;51.194;4.098;2023-01-24T14:50:57;15.90;99.90
14529;DHT22;7351;51.194;4.098;2023-01-24T14:53:26;15.90;99.90
14529;DHT22;7351;51.194;4.098;2023-01-24T14:55:55;16.10;99.90
14529;DHT22;7351;51.194;4.098;2023-01-24T14:58:24;16.20;99.90
14529;DHT22;7351;51.194;4.098;2023-01-24T15:00:52;16.30;99.90
14529;DHT22;7351;51.194;4.098;2023-01-24T15:03:23;16.30;99.90
14529;DHT22;7351;51.194;4.098;2023-01-24T15:05:53;16.40;99.90
14529;DHT22;7351;51.194;4.098;2023-01-24T15:08:20;16.50;99.90
14529;DHT22;7351;51.194;4.098;2023-01-24T15:10:54;16.60;99.90
14529;DHT22;7351;51.194;4.098;2023-01-24T15:13:25;16.70;99.90
14529;DHT22;7351;51.194;4.098;2023-01-24T15:15:53;16.80;99.90
14529;DHT22;7351;51.194;4.098;2023-01-24T15:18:39;16.80;99.90
14529;DHT22;7351;51.194;4.098;2023-01-24T15:21:16;16.90;99.90
14529;DHT22;7351;51.194;4.098;2023-01-24T15:23:48;17.00;99.90
14529;DHT22;7351;51.194;4.098;2023-01-24T15:26:38;17.00;99.90
14529;DHT22;7351;51.194;4.098;2023-01-24T15:29:41;17.10;99.90
14529;DHT22;7351;51.194;4.098;2023-01-24T15:32:29;17.20;99.90
14529;DHT22;7351;51.194;4.098;2023-01-24T15:35:37;17.20;99.90
14529;DHT22;7351;51.194;4.098;2023-01-24T15:38:25;17.30;99.90
14529;DHT22;7351;51.194;4.098;2023-01-24T15:41:01;17.40;99.90
14529;DHT22;7351;51.194;4.098;2023-01-24T15:43:31;17.40;99.90
14529;DHT22;7351;51.194;4.098;2023-01-24T15:46:20;17.50;99.90
14529;DHT22;7351;51.194;4.098;2023-01-24T15:52:28;17.60;99.90
14529;DHT22;7351;51.194;4.098;2023-01-24T15:54:57;17.70;99.90
14529;DHT22;7351;51.194;4.098;2023-01-24T15:57:27;17.70;99.90
14529;DHT22;7351;51.194;4.098;2023-01-24T15:59:58;17.80;99.90
14529;DHT22;7351;51.194;4.098;2023-01-24T16:02:26;17.80;99.90
14529;DHT22;7351;51.194;4.098;2023-01-24T16:04:54;17.80;99.90
14529;DHT22;7351;51.194;4.098;2023-01-24T16:07:21;17.90;99.90
14529;DHT22;7351;51.194;4.098;2023-01-24T16:09:50;17.90;99.90
14529;DHT22;7351;51.194;4.098;2023-01-24T16:12:22;17.90;99.90
14529;DHT22;7351;51.194;4.098;2023-01-24T16:14:51;18.00;99.90
14529;DHT22;7351;51.194;4.098;2023-01-24T16:17:20;18.00;99.90
14529;DHT22;7351;51.194;4.098;2023-01-24T16:19:48;18.00;99.90
14529;DHT22;7351;51.194;4.098;2023-01-24T16:22:15;18.00;99.90
14529;DHT22;7351;51.194;4.098;2023-01-24T16:24:43;18.00;99.90
14529;DHT22;7351;51.194;4.098;2023-01-24T16:27:12;18.00;99.90
14529;DHT22;7351;51.194;4.098;2023-01-24T16:29:40;18.00;99.90
14529;DHT22;7351;51.194;4.098;2023-01-24T16:32:19;18.00;99.90